sensor_id;sensor_type;location;lat;lon;timestamp;pressure;altitude;pressure_sealevel;temperature;humidity
64189;BME280;50493;50.970;10.082;2023-02-14T00:01:50;101315.06;;;2.71;75.68
64189;BME280;50493;50.970;10.082;2023-02-14T00:04:18;101312.84;;;2.81;74.99
64189;BME280;50493;50.970;10.082;2023-02-14T00:06:43;101324.81;;;2.79;74.68
64189;BME280;50493;50.970;10.082;2023-02-14T00:09:11;101324.91;;;2.82;74.98
64189;BME280;50493;50.970;10.082;2023-02-14T00:11:37;101322.50;;;2.85;74.73
64189;BME280;50493;50.970;10.082;2023-02-14T00:14:03;101320.88;;;2.88;74.26
64189;BME280;50493;50.970;10.082;2023-02-14T00:16:47;101321.28;;;2.77;74.59
64189;BME280;50493;50.970;10.082;2023-02-14T00:19:14;101331.13;;;2.64;75.57
64189;BME280;50493;50.970;10.082;2023-02-14T00:21:41;101331.19;;;2.66;75.46
64189;BME280;50493;50.970;10.082;2023-02-14T00:24:08;101332.56;;;2.79;74.29
64189;BME280;50493;50.970;10.082;2023-02-14T00:26:35;101335.19;;;2.80;74.10
64189;BME280;50493;50.970;10.082;2023-02-14T00:29:02;101329.59;;;2.69;74.43
64189;BME280;50493;50.970;10.082;2023-02-14T00:31:28;101322.03;;;2.74;74.40
64189;BME280;50493;50.970;10.082;2023-02-14T00:33:53;101324.56;;;2.72;74.33
64189;BME280;50493;50.970;10.082;2023-02-14T00:36:19;101327.31;;;2.77;73.89
64189;BME280;50493;50.970;10.082;2023-02-14T00:38:46;101328.84;;;2.72;73.87
64189;BME280;50493;50.970;10.082;2023-02-14T00:41:11;101322.34;;;2.61;74.36
64189;BME280;50493;50.970;10.082;2023-02-14T00:43:43;101326.75;;;2.63;75.13
64189;BME280;50493;50.970;10.082;2023-02-14T00:46:09;101317.16;;;2.82;73.38
64189;BME280;50493;50.970;10.082;2023-02-14T00:48:34;101328.19;;;2.78;73.75
64189;BME280;50493;50.970;10.082;2023-02-14T00:50:59;101326.47;;;2.77;73.42
64189;BME280;50493;50.970;10.082;2023-02-14T00:53:25;101334.50;;;2.63;74.07
64189;BME280;50493;50.970;10.082;2023-02-14T00:55:51;101326.06;;;2.67;74.11
64189;BME280;50493;50.970;10.082;2023-02-14T00:58:17;101331.41;;;2.72;73.64
64189;BME280;50493;50.970;10.082;2023-02-14T01:00:42;101333.47;;;2.79;73.02
64189;BME280;50493;50.970;10.082;2023-02-14T01:03:07;101335.59;;;2.68;73.20
64189;BME280;50493;50.970;10.082;2023-02-14T01:05:33;101331.72;;;2.59;73.69
64189;BME280;50493;50.970;10.082;2023-02-14T01:07:58;101331.88;;;2.62;73.48
64189;BME280;50493;50.970;10.082;2023-02-14T01:10:23;101324.31;;;2.66;73.41
64189;BME280;50493;50.970;10.082;2023-02-14T01:12:50;101325.56;;;2.76;72.79
64189;BME280;50493;50.970;10.082;2023-02-14T01:15:15;101327.78;;;2.88;71.94
64189;BME280;50493;50.970;10.082;2023-02-14T01:17:41;101332.56;;;2.79;72.63
64189;BME280;50493;50.970;10.082;2023-02-14T01:20:07;101332.66;;;2.82;71.69
64189;BME280;50493;50.970;10.082;2023-02-14T01:22:34;101336.63;;;2.73;72.55
64189;BME280;50493;50.970;10.082;2023-02-14T01:24:59;101333.38;;;2.78;71.19
64189;BME280;50493;50.970;10.082;2023-02-14T01:27:25;101336.91;;;2.80;72.64
64189;BME280;50493;50.970;10.082;2023-02-14T01:29:51;101332.97;;;3.09;70.80
64189;BME280;50493;50.970;10.082;2023-02-14T01:32:17;101326.00;;;2.87;70.21
64189;BME280;50493;50.970;10.082;2023-02-14T01:34:42;101329.03;;;2.77;71.75
64189;BME280;50493;50.970;10.082;2023-02-14T01:37:07;101326.06;;;2.67;70.84
64189;BME280;50493;50.970;10.082;2023-02-14T01:39:33;101324.47;;;2.71;72.41
64189;BME280;50493;50.970;10.082;2023-02-14T01:41:58;101320.34;;;2.74;65.85
64189;BME280;50493;50.970;10.082;2023-02-14T01:45:00;101321.84;;;2.69;71.78
64189;BME280;50493;50.970;10.082;2023-02-14T01:47:27;101322.28;;;2.59;72.01
64189;BME280;50493;50.970;10.082;2023-02-14T01:49:57;101326.50;;;2.57;72.71
64189;BME280;50493;50.970;10.082;2023-02-14T01:52:25;101320.78;;;2.64;71.90
64189;BME280;50493;50.970;10.082;2023-02-14T01:54:55;101314.94;;;2.68;69.62
64189;BME280;50493;50.970;10.082;2023-02-14T01:57:25;101315.47;;;2.61;71.89
64189;BME280;50493;50.970;10.082;2023-02-14T01:59:57;101322.28;;;2.59;72.04
64189;BME280;50493;50.970;10.082;2023-02-14T02:02:44;101330.84;;;2.58;70.95
64189;BME280;50493;50.970;10.082;2023-02-14T02:05:10;101324.72;;;2.56;71.83
64189;BME280;50493;50.970;10.082;2023-02-14T02:07:36;101321.16;;;2.52;70.49
64189;BME280;50493;50.970;10.082;2023-02-14T02:10:03;101318.13;;;2.42;72.66
64189;BME280;50493;50.970;10.082;2023-02-14T02:12:31;101314.31;;;2.33;72.75
64189;BME280;50493;50.970;10.082;2023-02-14T02:14:59;101315.81;;;2.28;73.63
64189;BME280;50493;50.970;10.082;2023-02-14T02:17:32;101314.16;;;2.30;73.39
64189;BME280;50493;50.970;10.082;2023-02-14T02:23:41;101310.16;;;2.37;72.09
64189;BME280;50493;50.970;10.082;2023-02-14T02:26:33;101307.38;;;2.32;73.15
64189;BME280;50493;50.970;10.082;2023-02-14T02:29:19;101310.53;;;2.25;73.05
64189;BME280;50493;50.970;10.082;2023-02-14T02:32:08;101299.53;;;2.10;73.70
64189;BME280;50493;50.970;10.082;2023-02-14T02:35:09;101310.13;;;2.16;73.40
64189;BME280;50493;50.970;10.082;2023-02-14T02:37:43;101302.50;;;2.19;72.92
64189;BME280;50493;50.970;10.082;2023-02-14T02:40:22;101306.31;;;2.27;68.46
64189;BME280;50493;50.970;10.082;2023-02-14T02:43:01;101300.84;;;1.43;68.61
64189;BME280;50493;50.970;10.082;2023-02-14T02:45:40;101309.66;;;1.10;68.97
64189;BME280;50493;50.970;10.082;2023-02-14T02:48:34;101314.19;;;1.71;71.06
64189;BME280;50493;50.970;10.082;2023-02-14T02:51:06;101310.91;;;1.56;74.04
64189;BME280;50493;50.970;10.082;2023-02-14T02:53:55;101302.50;;;1.60;75.03
64189;BME280;50493;50.970;10.082;2023-02-14T02:56:28;101299.94;;;1.80;74.53
64189;BME280;50493;50.970;10.082;2023-02-14T02:59:16;101292.88;;;1.76;65.42
64189;BME280;50493;50.970;10.082;2023-02-14T03:01:45;101296.06;;;2.09;67.73
64189;BME280;50493;50.970;10.082;2023-02-14T03:04:12;101306.84;;;1.61;73.69
64189;BME280;50493;50.970;10.082;2023-02-14T03:07:00;101305.22;;;1.63;75.32
64189;BME280;50493;50.970;10.082;2023-02-14T03:09:51;101298.59;;;1.88;73.68
64189;BME280;50493;50.970;10.082;2023-02-14T03:12:37;101292.75;;;1.72;74.74
64189;BME280;50493;50.970;10.082;2023-02-14T03:15:13;101305.47;;;1.50;64.98
64189;BME280;50493;50.970;10.082;2023-02-14T03:17:52;101307.50;;;1.57;72.09
64189;BME280;50493;50.970;10.082;2023-02-14T03:20:22;101308.22;;;1.72;73.66
64189;BME280;50493;50.970;10.082;2023-02-14T03:22:54;101303.63;;;1.85;72.95
64189;BME280;50493;50.970;10.082;2023-02-14T03:25:37;101301.84;;;1.84;73.60
64189;BME280;50493;50.970;10.082;2023-02-14T03:28:11;101303.00;;;1.71;74.50
64189;BME280;50493;50.970;10.082;2023-02-14T03:30:44;101304.03;;;1.94;72.70
64189;BME280;50493;50.970;10.082;2023-02-14T03:33:14;101305.38;;;1.86;72.97
64189;BME280;50493;50.970;10.082;2023-02-14T03:35:46;101297.50;;;2.02;72.41
64189;BME280;50493;50.970;10.082;2023-02-14T03:38:19;101297.22;;;1.96;72.42
64189;BME280;50493;50.970;10.082;2023-02-14T03:40:50;101297.09;;;1.93;72.29
64189;BME280;50493;50.970;10.082;2023-02-14T03:43:23;101296.97;;;1.90;73.00
64189;BME280;50493;50.970;10.082;2023-02-14T03:45:53;101299.31;;;1.85;73.06
64189;BME280;50493;50.970;10.082;2023-02-14T03:48:22;101299.25;;;2.23;68.88
64189;BME280;50493;50.970;10.082;2023-02-14T03:50:50;101295.19;;;1.89;72.54
64189;BME280;50493;50.970;10.082;2023-02-14T03:53:20;101292.75;;;1.72;73.77
64189;BME280;50493;50.970;10.082;2023-02-14T03:55:53;101289.75;;;1.83;64.88
64189;BME280;50493;50.970;10.082;2023-02-14T03:58:22;101288.78;;;1.61;73.20
64189;BME280;50493;50.970;10.082;2023-02-14T04:00:51;101293.25;;;1.65;73.81
64189;BME280;50493;50.970;10.082;2023-02-14T04:03:22;101284.94;;;2.10;69.04
64189;BME280;50493;50.970;10.082;2023-02-14T04:05:49;101291.28;;;1.78;72.79
64189;BME280;50493;50.970;10.082;2023-02-14T04:08:21;101291.75;;;1.88;72.31
64189;BME280;50493;50.970;10.082;2023-02-14T04:10:47;101301.72;;;1.81;72.38
64189;BME280;50493;50.970;10.082;2023-02-14T04:13:12;101287.97;;;1.43;69.07
64189;BME280;50493;50.970;10.082;2023-02-14T04:15:38;101304.13;;;1.58;73.57
64189;BME280;50493;50.970;10.082;2023-02-14T04:18:03;101295.19;;;1.89;67.10
64189;BME280;50493;50.970;10.082;2023-02-14T04:21:07;101298.84;;;1.55;73.94
64189;BME280;50493;50.970;10.082;2023-02-14T04:23:33;101297.75;;;1.69;72.60
64189;BME280;50493;50.970;10.082;2023-02-14T04:25:59;101293.00;;;1.79;72.17
64189;BME280;50493;50.970;10.082;2023-02-14T04:28:24;101290.16;;;1.92;71.07
64189;BME280;50493;50.970;10.082;2023-02-14T04:30:50;101292.06;;;1.96;62.90
64189;BME280;50493;50.970;10.082;2023-02-14T04:33:15;101304.94;;;1.19;70.71
64189;BME280;50493;50.970;10.082;2023-02-14T04:35:40;101301.53;;;1.02;66.02
64189;BME280;50493;50.970;10.082;2023-02-14T04:38:06;101292.97;;;1.39;70.49
64189;BME280;50493;50.970;10.082;2023-02-14T04:40:33;101293.28;;;1.28;72.28
64189;BME280;50493;50.970;10.082;2023-02-14T04:42:58;101296.38;;;1.38;73.29
64189;BME280;50493;50.970;10.082;2023-02-14T04:45:25;101297.19;;;1.57;72.20
64189;BME280;50493;50.970;10.082;2023-02-14T04:47:51;101300.63;;;1.56;72.58
64189;BME280;50493;50.970;10.082;2023-02-14T04:50:16;101293.81;;;1.58;72.39
64189;BME280;50493;50.970;10.082;2023-02-14T04:52:41;101294.59;;;1.37;66.56
64189;BME280;50493;50.970;10.082;2023-02-14T04:55:08;101290.63;;;1.26;74.19
64189;BME280;50493;50.970;10.082;2023-02-14T04:57:35;101288.63;;;1.38;74.09
64189;BME280;50493;50.970;10.082;2023-02-14T05:00:00;101287.06;;;1.42;73.69
64189;BME280;50493;50.970;10.082;2023-02-14T05:02:26;101290.25;;;1.36;74.12
64189;BME280;50493;50.970;10.082;2023-02-14T05:04:51;101289.22;;;1.33;73.76
64189;BME280;50493;50.970;10.082;2023-02-14T05:07:16;101292.75;;;1.35;74.29
64189;BME280;50493;50.970;10.082;2023-02-14T05:09:42;101286.94;;;1.39;74.04
64189;BME280;50493;50.970;10.082;2023-02-14T05:12:07;101281.59;;;1.34;74.69
64189;BME280;50493;50.970;10.082;2023-02-14T05:14:34;101276.94;;;1.27;74.68
64189;BME280;50493;50.970;10.082;2023-02-14T05:16:59;101274.59;;;1.14;75.59
64189;BME280;50493;50.970;10.082;2023-02-14T05:19:25;101271.66;;;1.24;74.54
64189;BME280;50493;50.970;10.082;2023-02-14T05:21:50;101275.81;;;1.22;74.77
64189;BME280;50493;50.970;10.082;2023-02-14T05:24:16;101279.47;;;1.08;75.27
64189;BME280;50493;50.970;10.082;2023-02-14T05:26:41;101274.59;;;1.14;75.67
64189;BME280;50493;50.970;10.082;2023-02-14T05:29:06;101270.59;;;1.20;75.04
64189;BME280;50493;50.970;10.082;2023-02-14T05:31:33;101269.25;;;1.29;74.15
64189;BME280;50493;50.970;10.082;2023-02-14T05:33:58;101271.03;;;1.30;74.90
64189;BME280;50493;50.970;10.082;2023-02-14T05:36:24;101272.22;;;1.36;73.84
64189;BME280;50493;50.970;10.082;2023-02-14T05:38:49;101271.78;;;1.27;74.66
64189;BME280;50493;50.970;10.082;2023-02-14T05:41:15;101266.50;;;1.24;73.78
64189;BME280;50493;50.970;10.082;2023-02-14T05:43:40;101269.06;;;1.24;74.23
64189;BME280;50493;50.970;10.082;2023-02-14T05:46:05;101275.41;;;1.50;72.66
64189;BME280;50493;50.970;10.082;2023-02-14T05:48:32;101276.31;;;1.51;73.10
64189;BME280;50493;50.970;10.082;2023-02-14T05:51:02;101276.25;;;1.49;72.70
64189;BME280;50493;50.970;10.082;2023-02-14T05:53:27;101264.72;;;1.41;73.82
64189;BME280;50493;50.970;10.082;2023-02-14T05:55:53;101263.94;;;1.44;72.94
64189;BME280;50493;50.970;10.082;2023-02-14T05:58:18;101266.94;;;1.53;72.49
64189;BME280;50493;50.970;10.082;2023-02-14T06:00:43;101271.28;;;1.54;72.09
64189;BME280;50493;50.970;10.082;2023-02-14T06:03:09;101276.56;;;1.57;72.64
64189;BME280;50493;50.970;10.082;2023-02-14T06:05:35;101271.84;;;1.66;71.34
64189;BME280;50493;50.970;10.082;2023-02-14T06:08:01;101276.31;;;1.51;72.52
64189;BME280;50493;50.970;10.082;2023-02-14T06:10:26;101276.31;;;1.51;72.72
64189;BME280;50493;50.970;10.082;2023-02-14T06:12:52;101278.81;;;1.49;72.36
64189;BME280;50493;50.970;10.082;2023-02-14T06:15:18;101281.53;;;1.52;72.89
64189;BME280;50493;50.970;10.082;2023-02-14T06:17:44;101278.94;;;1.52;72.75
64189;BME280;50493;50.970;10.082;2023-02-14T06:20:10;101282.53;;;1.36;73.32
64189;BME280;50493;50.970;10.082;2023-02-14T06:22:37;101273.09;;;1.37;73.81
64189;BME280;50493;50.970;10.082;2023-02-14T06:25:04;101273.84;;;1.34;72.98
64189;BME280;50493;50.970;10.082;2023-02-14T06:27:30;101276.78;;;1.24;73.70
64189;BME280;50493;50.970;10.082;2023-02-14T06:29:55;101279.28;;;1.41;73.01
64189;BME280;50493;50.970;10.082;2023-02-14T06:32:20;101274.13;;;1.41;72.95
64189;BME280;50493;50.970;10.082;2023-02-14T06:34:46;101283.72;;;1.25;73.11
64189;BME280;50493;50.970;10.082;2023-02-14T06:37:12;101283.75;;;1.45;72.70
64189;BME280;50493;50.970;10.082;2023-02-14T06:39:38;101289.47;;;1.01;74.63
64189;BME280;50493;50.970;10.082;2023-02-14T06:42:04;101287.09;;;1.24;73.87
64189;BME280;50493;50.970;10.082;2023-02-14T06:44:29;101284.09;;;1.15;74.13
64189;BME280;50493;50.970;10.082;2023-02-14T06:46:54;101283.56;;;1.22;73.96
64189;BME280;50493;50.970;10.082;2023-02-14T06:49:20;101277.00;;;1.29;72.94
64189;BME280;50493;50.970;10.082;2023-02-14T06:51:45;101282.53;;;1.36;72.61
64189;BME280;50493;50.970;10.082;2023-02-14T06:54:11;101282.53;;;1.36;73.39
64189;BME280;50493;50.970;10.082;2023-02-14T06:56:37;101281.94;;;1.24;73.74
64189;BME280;50493;50.970;10.082;2023-02-14T06:59:03;101280.91;;;1.20;74.16
64189;BME280;50493;50.970;10.082;2023-02-14T07:01:28;101279.06;;;1.18;73.51
64189;BME280;50493;50.970;10.082;2023-02-14T07:03:53;101284.56;;;1.44;72.95
64189;BME280;50493;50.970;10.082;2023-02-14T07:06:19;101285.91;;;1.35;72.26
64189;BME280;50493;50.970;10.082;2023-02-14T07:08:44;101299.63;;;1.34;72.95
64189;BME280;50493;50.970;10.082;2023-02-14T07:11:09;101290.75;;;1.47;71.49
64189;BME280;50493;50.970;10.082;2023-02-14T07:13:36;101285.09;;;1.36;72.61
64189;BME280;50493;50.970;10.082;2023-02-14T07:16:02;101283.38;;;1.55;71.76
64189;BME280;50493;50.970;10.082;2023-02-14T07:18:28;101292.34;;;1.63;71.44
64189;BME280;50493;50.970;10.082;2023-02-14T07:20:53;101289.88;;;1.66;71.43
64189;BME280;50493;50.970;10.082;2023-02-14T07:23:18;101289.91;;;1.86;70.25
64189;BME280;50493;50.970;10.082;2023-02-14T07:25:44;101292.53;;;2.07;69.32
64189;BME280;50493;50.970;10.082;2023-02-14T07:28:09;101286.25;;;1.81;70.32
64189;BME280;50493;50.970;10.082;2023-02-14T07:30:36;101282.19;;;1.86;69.68
64189;BME280;50493;50.970;10.082;2023-02-14T07:33:01;101286.28;;;2.02;69.58
64189;BME280;50493;50.970;10.082;2023-02-14T07:35:26;101286.03;;;1.96;69.80
64189;BME280;50493;50.970;10.082;2023-02-14T07:37:52;101286.38;;;1.84;69.84
64189;BME280;50493;50.970;10.082;2023-02-14T07:40:17;101289.50;;;1.77;70.04
64189;BME280;50493;50.970;10.082;2023-02-14T07:42:51;101286.19;;;1.42;71.75
64189;BME280;50493;50.970;10.082;2023-02-14T07:45:16;101279.69;;;1.50;72.03
64189;BME280;50493;50.970;10.082;2023-02-14T07:47:43;101275.09;;;1.62;71.56
64189;BME280;50493;50.970;10.082;2023-02-14T07:50:09;101273.75;;;1.70;70.99
64189;BME280;50493;50.970;10.082;2023-02-14T07:52:34;101271.97;;;1.69;70.56
64189;BME280;50493;50.970;10.082;2023-02-14T07:55:00;101273.00;;;1.73;70.26
64189;BME280;50493;50.970;10.082;2023-02-14T07:57:25;101270.47;;;1.75;70.19
64189;BME280;50493;50.970;10.082;2023-02-14T07:59:51;101274.28;;;1.83;70.56
64189;BME280;50493;50.970;10.082;2023-02-14T08:02:16;101273.22;;;1.78;70.61
64189;BME280;50493;50.970;10.082;2023-02-14T08:04:43;101269.59;;;1.74;70.60
64189;BME280;50493;50.970;10.082;2023-02-14T08:07:09;101277.53;;;1.79;70.86
64189;BME280;50493;50.970;10.082;2023-02-14T08:09:34;101276.25;;;2.70;65.88
64189;BME280;50493;50.970;10.082;2023-02-14T08:12:00;101276.53;;;2.78;66.10
64189;BME280;50493;50.970;10.082;2023-02-14T08:14:44;101270.75;;;3.04;63.54
64189;BME280;50493;50.970;10.082;2023-02-14T08:17:10;101281.19;;;2.23;68.03
64189;BME280;50493;50.970;10.082;2023-02-14T08:19:37;101262.81;;;2.36;67.20
64189;BME280;50493;50.970;10.082;2023-02-14T08:22:05;101263.84;;;2.40;67.82
64189;BME280;50493;50.970;10.082;2023-02-14T08:24:31;101265.47;;;2.17;68.90
64189;BME280;50493;50.970;10.082;2023-02-14T08:26:56;101267.38;;;2.63;69.16
64189;BME280;50493;50.970;10.082;2023-02-14T08:29:22;101265.59;;;2.62;66.57
64189;BME280;50493;50.970;10.082;2023-02-14T08:31:47;101264.22;;;2.70;66.19
64189;BME280;50493;50.970;10.082;2023-02-14T08:34:13;101257.69;;;2.57;67.19
64189;BME280;50493;50.970;10.082;2023-02-14T08:36:39;101257.28;;;2.69;67.79
64189;BME280;50493;50.970;10.082;2023-02-14T08:39:06;101260.50;;;2.85;65.58
64189;BME280;50493;50.970;10.082;2023-02-14T08:41:32;101256.22;;;3.29;65.19
64189;BME280;50493;50.970;10.082;2023-02-14T08:43:57;101254.44;;;2.42;67.45
64189;BME280;50493;50.970;10.082;2023-02-14T08:46:23;101248.22;;;2.37;67.63
64189;BME280;50493;50.970;10.082;2023-02-14T08:48:48;101251.34;;;2.30;68.12
64189;BME280;50493;50.970;10.082;2023-02-14T08:51:17;101254.59;;;2.04;68.97
64189;BME280;50493;50.970;10.082;2023-02-14T08:53:43;101249.53;;;2.27;66.40
64189;BME280;50493;50.970;10.082;2023-02-14T08:56:11;101251.75;;;1.02;69.23
64189;BME280;50493;50.970;10.082;2023-02-14T08:58:38;101245.22;;;1.48;71.66
64189;BME280;50493;50.970;10.082;2023-02-14T09:01:07;101242.53;;;1.84;68.14
64189;BME280;50493;50.970;10.082;2023-02-14T09:03:33;101243.34;;;1.63;67.73
64189;BME280;50493;50.970;10.082;2023-02-14T09:06:01;101242.47;;;1.82;70.42
64189;BME280;50493;50.970;10.082;2023-02-14T09:08:27;101235.13;;;2.53;68.03
64189;BME280;50493;50.970;10.082;2023-02-14T09:10:52;101242.25;;;2.59;68.26
64189;BME280;50493;50.970;10.082;2023-02-14T09:13:19;101236.81;;;2.74;66.06
64189;BME280;50493;50.970;10.082;2023-02-14T09:15:45;101237.81;;;3.21;62.86
64189;BME280;50493;50.970;10.082;2023-02-14T09:18:10;101243.22;;;2.84;66.16
64189;BME280;50493;50.970;10.082;2023-02-14T09:20:35;101245.66;;;3.02;68.58
64189;BME280;50493;50.970;10.082;2023-02-14T09:23:00;101243.28;;;3.29;63.17
64189;BME280;50493;50.970;10.082;2023-02-14T09:25:26;101251.13;;;2.04;68.98
64189;BME280;50493;50.970;10.082;2023-02-14T09:27:51;101249.69;;;2.72;68.15
64189;BME280;50493;50.970;10.082;2023-02-14T09:30:18;101244.94;;;2.62;67.92
64189;BME280;50493;50.970;10.082;2023-02-14T09:32:43;101243.53;;;2.49;67.42
64189;BME280;50493;50.970;10.082;2023-02-14T09:35:09;101243.19;;;2.61;68.27
64189;BME280;50493;50.970;10.082;2023-02-14T09:37:34;101243.09;;;2.38;68.76
64189;BME280;50493;50.970;10.082;2023-02-14T09:40:18;101243.34;;;2.23;69.91
64189;BME280;50493;50.970;10.082;2023-02-14T09:42:49;101236.63;;;2.27;69.60
64189;BME280;50493;50.970;10.082;2023-02-14T09:45:19;101236.19;;;2.37;70.55
64189;BME280;50493;50.970;10.082;2023-02-14T09:47:49;101234.28;;;2.76;67.73
64189;BME280;50493;50.970;10.082;2023-02-14T09:50:19;101227.56;;;2.79;67.52
64189;BME280;50493;50.970;10.082;2023-02-14T09:52:49;101227.28;;;2.94;67.01
64189;BME280;50493;50.970;10.082;2023-02-14T09:55:16;101225.06;;;3.26;64.88
64189;BME280;50493;50.970;10.082;2023-02-14T09:57:48;101233.31;;;3.16;65.02
64189;BME280;50493;50.970;10.082;2023-02-14T10:00:28;101226.75;;;2.82;67.20
64189;BME280;50493;50.970;10.082;2023-02-14T10:03:02;101229.97;;;2.32;69.95
64189;BME280;50493;50.970;10.082;2023-02-14T10:05:35;101235.09;;;2.74;66.49
64189;BME280;50493;50.970;10.082;2023-02-14T10:08:08;101225.69;;;2.54;68.90
64189;BME280;50493;50.970;10.082;2023-02-14T10:10:41;101236.13;;;2.78;68.10
64189;BME280;50493;50.970;10.082;2023-02-14T10:13:13;101214.66;;;3.47;67.29
64189;BME280;50493;50.970;10.082;2023-02-14T10:15:43;101223.28;;;3.96;64.88
64189;BME280;50493;50.970;10.082;2023-02-14T10:18:12;101225.09;;;4.24;63.08
64189;BME280;50493;50.970;10.082;2023-02-14T10:20:41;101226.50;;;3.89;63.67
64189;BME280;50493;50.970;10.082;2023-02-14T10:23:20;101226.16;;;2.45;67.78
64189;BME280;50493;50.970;10.082;2023-02-14T10:25:51;101219.84;;;3.71;65.08
64189;BME280;50493;50.970;10.082;2023-02-14T10:28:24;101213.88;;;3.50;65.75
64189;BME280;50493;50.970;10.082;2023-02-14T10:31:01;101214.44;;;3.65;65.10
64189;BME280;50493;50.970;10.082;2023-02-14T10:33:31;101220.25;;;3.35;66.00
64189;BME280;50493;50.970;10.082;2023-02-14T10:36:02;101213.19;;;3.31;66.65
64189;BME280;50493;50.970;10.082;2023-02-14T10:38:36;101213.28;;;2.89;68.58
64189;BME280;50493;50.970;10.082;2023-02-14T10:41:17;101216.53;;;3.06;67.93
64189;BME280;50493;50.970;10.082;2023-02-14T10:43:51;101211.56;;;4.33;64.88
64189;BME280;50493;50.970;10.082;2023-02-14T10:46:30;101201.41;;;4.94;62.82
64189;BME280;50493;50.970;10.082;2023-02-14T10:49:01;101207.94;;;4.54;63.12
64189;BME280;50493;50.970;10.082;2023-02-14T10:51:39;101198.88;;;4.41;63.94
64189;BME280;50493;50.970;10.082;2023-02-14T10:54:15;101200.97;;;4.00;64.44
64189;BME280;50493;50.970;10.082;2023-02-14T10:56:46;101201.53;;;3.43;66.42
64189;BME280;50493;50.970;10.082;2023-02-14T10:59:17;101190.31;;;3.42;67.05
64189;BME280;50493;50.970;10.082;2023-02-14T11:01:47;101193.28;;;3.29;68.01
64189;BME280;50493;50.970;10.082;2023-02-14T11:04:15;101195.59;;;3.69;66.42
64189;BME280;50493;50.970;10.082;2023-02-14T11:06:41;101186.00;;;3.91;65.99
64189;BME280;50493;50.970;10.082;2023-02-14T11:09:08;101176.19;;;4.06;65.28
64189;BME280;50493;50.970;10.082;2023-02-14T11:11:36;101181.72;;;3.91;68.53
64189;BME280;50493;50.970;10.082;2023-02-14T11:14:18;101178.56;;;4.53;65.15
64189;BME280;50493;50.970;10.082;2023-02-14T11:16:46;101179.84;;;4.66;65.13
64189;BME280;50493;50.970;10.082;2023-02-14T11:19:19;101181.50;;;4.64;64.25
64189;BME280;50493;50.970;10.082;2023-02-14T11:21:47;101180.31;;;4.82;63.28
64189;BME280;50493;50.970;10.082;2023-02-14T11:24:18;101172.44;;;5.07;61.86
64189;BME280;50493;50.970;10.082;2023-02-14T11:26:46;101173.78;;;4.13;65.49
64189;BME280;50493;50.970;10.082;2023-02-14T11:29:14;101177.28;;;4.13;65.46
64189;BME280;50493;50.970;10.082;2023-02-14T11:31:40;101175.09;;;3.50;68.28
64189;BME280;50493;50.970;10.082;2023-02-14T11:34:31;101169.19;;;3.30;68.46
64189;BME280;50493;50.970;10.082;2023-02-14T11:36:57;101164.88;;;3.06;70.11
64189;BME280;50493;50.970;10.082;2023-02-14T11:39:28;101159.63;;;3.27;68.88
64189;BME280;50493;50.970;10.082;2023-02-14T11:41:56;101162.94;;;3.23;69.53
64189;BME280;50493;50.970;10.082;2023-02-14T11:44:23;101161.91;;;3.92;67.30
64189;BME280;50493;50.970;10.082;2023-02-14T11:46:49;101154.91;;;4.99;62.39
64189;BME280;50493;50.970;10.082;2023-02-14T11:49:28;101148.84;;;4.69;62.89
64189;BME280;50493;50.970;10.082;2023-02-14T11:51:56;101150.72;;;4.46;65.20
64189;BME280;50493;50.970;10.082;2023-02-14T11:54:28;101147.25;;;4.46;65.37
64189;BME280;50493;50.970;10.082;2023-02-14T11:56:56;101141.56;;;3.77;68.63
64189;BME280;50493;50.970;10.082;2023-02-14T11:59:28;101146.25;;;3.63;68.72
64189;BME280;50493;50.970;10.082;2023-02-14T12:01:56;101142.34;;;4.00;67.74
64189;BME280;50493;50.970;10.082;2023-02-14T12:04:27;101137.41;;;4.08;67.53
64189;BME280;50493;50.970;10.082;2023-02-14T12:07:14;101130.03;;;4.76;65.71
64189;BME280;50493;50.970;10.082;2023-02-14T12:09:40;101133.19;;;5.88;60.04
64189;BME280;50493;50.970;10.082;2023-02-14T12:12:15;101128.91;;;5.26;62.36
64189;BME280;50493;50.970;10.082;2023-02-14T12:14:41;101131.56;;;5.29;61.05
64189;BME280;50493;50.970;10.082;2023-02-14T12:17:17;101118.84;;;5.38;60.85
64189;BME280;50493;50.970;10.082;2023-02-14T12:19:45;101124.75;;;5.02;62.39
64189;BME280;50493;50.970;10.082;2023-02-14T12:22:16;101116.25;;;5.06;63.71
64189;BME280;50493;50.970;10.082;2023-02-14T12:24:48;101121.63;;;5.45;63.25
64189;BME280;50493;50.970;10.082;2023-02-14T12:27:18;101120.75;;;4.83;65.01
64189;BME280;50493;50.970;10.082;2023-02-14T12:29:51;101112.19;;;4.57;66.21
64189;BME280;50493;50.970;10.082;2023-02-14T12:32:20;101112.38;;;4.92;66.57
64189;BME280;50493;50.970;10.082;2023-02-14T12:34:47;101106.34;;;6.24;59.70
64189;BME280;50493;50.970;10.082;2023-02-14T12:37:20;101099.72;;;5.35;63.09
64189;BME280;50493;50.970;10.082;2023-02-14T12:40:16;101099.53;;;4.66;66.24
64189;BME280;50493;50.970;10.082;2023-02-14T12:43:01;101096.47;;;5.10;65.45
64189;BME280;50493;50.970;10.082;2023-02-14T12:45:51;101086.72;;;5.01;65.66
64189;BME280;50493;50.970;10.082;2023-02-14T12:48:25;101082.94;;;6.22;61.42
64189;BME280;50493;50.970;10.082;2023-02-14T12:50:58;101078.47;;;5.47;63.69
64189;BME280;50493;50.970;10.082;2023-02-14T12:53:36;101081.94;;;4.85;66.48
64189;BME280;50493;50.970;10.082;2023-02-14T12:56:10;101067.59;;;5.95;63.07
64189;BME280;50493;50.970;10.082;2023-02-14T12:58:56;101063.75;;;5.81;63.18
64189;BME280;50493;50.970;10.082;2023-02-14T13:01:33;101059.53;;;6.21;61.63
64189;BME280;50493;50.970;10.082;2023-02-14T13:04:19;101060.09;;;5.72;63.82
64189;BME280;50493;50.970;10.082;2023-02-14T13:06:53;101060.22;;;5.12;67.09